sensor_id;sensor_type;location;lat;lon;timestamp;pressure;altitude;pressure_sealevel;temperature;humidity
66547;BME280;53400;50.364;14.874;2022-12-18T00:01:37;100129.06;;;-7.32;94.29
66547;BME280;53400;50.364;14.874;2022-12-18T00:04:04;100132.03;;;-7.38;95.16
66547;BME280;53400;50.364;14.874;2022-12-18T00:06:32;100126.19;;;-7.42;96.16
66547;BME280;53400;50.364;14.874;2022-12-18T00:09:02;100125.44;;;-7.29;96.73
66547;BME280;53400;50.364;14.874;2022-12-18T00:11:30;100117.78;;;-6.50;94.44
66547;BME280;53400;50.364;14.874;2022-12-18T00:13:58;100122.78;;;-7.01;94.22
66547;BME280;53400;50.364;14.874;2022-12-18T00:16:26;100120.03;;;-7.12;95.02
66547;BME280;53400;50.364;14.874;2022-12-18T00:18:54;100123.53;;;-6.99;96.09
66547;BME280;53400;50.364;14.874;2022-12-18T00:21:21;100119.25;;;-6.46;95.11
66547;BME280;53400;50.364;14.874;2022-12-18T00:23:48;100119.53;;;-6.63;93.21
66547;BME280;53400;50.364;14.874;2022-12-18T00:26:16;100124.81;;;-6.64;92.20
66547;BME280;53400;50.364;14.874;2022-12-18T00:28:45;100128.22;;;-6.91;92.41
66547;BME280;53400;50.364;14.874;2022-12-18T00:31:13;100132.72;;;-6.93;92.79
66547;BME280;53400;50.364;14.874;2022-12-18T00:33:39;100135.91;;;-7.02;94.55
66547;BME280;53400;50.364;14.874;2022-12-18T00:36:07;100132.19;;;-6.71;94.40
66547;BME280;53400;50.364;14.874;2022-12-18T00:38:34;100138.47;;;-6.61;94.96
66547;BME280;53400;50.364;14.874;2022-12-18T00:41:01;100135.16;;;-6.63;94.59
66547;BME280;53400;50.364;14.874;2022-12-18T00:43:27;100133.59;;;-6.26;93.45
66547;BME280;53400;50.364;14.874;2022-12-18T00:45:54;100132.34;;;-6.60;94.31
66547;BME280;53400;50.364;14.874;2022-12-18T00:48:21;100137.75;;;-6.36;94.55
66547;BME280;53400;50.364;14.874;2022-12-18T00:50:48;100134.47;;;-6.39;93.82
66547;BME280;53400;50.364;14.874;2022-12-18T00:53:14;100151.38;;;-6.45;94.21
66547;BME280;53400;50.364;14.874;2022-12-18T00:55:40;100165.22;;;-6.72;95.21
66547;BME280;53400;50.364;14.874;2022-12-18T00:58:07;100164.41;;;-6.45;96.09
66547;BME280;53400;50.364;14.874;2022-12-18T01:00:33;100167.78;;;-6.57;96.22
66547;BME280;53400;50.364;14.874;2022-12-18T01:03:00;100162.53;;;-6.43;96.90
66547;BME280;53400;50.364;14.874;2022-12-18T01:05:27;100159.13;;;-6.31;96.97
66547;BME280;53400;50.364;14.874;2022-12-18T01:07:53;100163.66;;;-6.20;96.99
66547;BME280;53400;50.364;14.874;2022-12-18T01:10:19;100180.69;;;-6.14;96.53
66547;BME280;53400;50.364;14.874;2022-12-18T01:12:45;100180.13;;;-6.19;96.71
66547;BME280;53400;50.364;14.874;2022-12-18T01:15:12;100182.38;;;-6.28;96.96
66547;BME280;53400;50.364;14.874;2022-12-18T01:17:38;100187.25;;;-6.09;97.22
66547;BME280;53400;50.364;14.874;2022-12-18T01:20:07;100179.22;;;-6.06;96.97
66547;BME280;53400;50.364;14.874;2022-12-18T01:22:34;100176.19;;;-6.12;96.61
66547;BME280;53400;50.364;14.874;2022-12-18T01:25:00;100186.84;;;-6.03;96.30
66547;BME280;53400;50.364;14.874;2022-12-18T01:27:26;100183.97;;;-6.25;97.30
66547;BME280;53400;50.364;14.874;2022-12-18T01:29:52;100180.06;;;-6.45;99.55
66547;BME280;53400;50.364;14.874;2022-12-18T01:32:18;100181.41;;;-6.39;100.00
66547;BME280;53400;50.364;14.874;2022-12-18T01:34:44;100193.41;;;-6.64;100.00
66547;BME280;53400;50.364;14.874;2022-12-18T01:37:11;100190.16;;;-6.67;100.00
66547;BME280;53400;50.364;14.874;2022-12-18T01:39:37;100186.66;;;-6.95;100.00
66547;BME280;53400;50.364;14.874;2022-12-18T01:42:03;100198.84;;;-7.10;100.00
66547;BME280;53400;50.364;14.874;2022-12-18T01:44:58;100191.78;;;-6.94;99.99
66547;BME280;53400;50.364;14.874;2022-12-18T01:47:27;100190.34;;;-6.71;99.92
66547;BME280;53400;50.364;14.874;2022-12-18T01:49:56;100196.66;;;-6.33;98.98
66547;BME280;53400;50.364;14.874;2022-12-18T01:52:24;100203.41;;;-6.16;98.83
66547;BME280;53400;50.364;14.874;2022-12-18T01:54:52;100199.38;;;-6.08;99.09
66547;BME280;53400;50.364;14.874;2022-12-18T01:57:18;100198.97;;;-6.02;98.19
66547;BME280;53400;50.364;14.874;2022-12-18T01:59:47;100207.34;;;-6.24;97.68
66547;BME280;53400;50.364;14.874;2022-12-18T02:02:15;100218.13;;;-6.03;98.61
66547;BME280;53400;50.364;14.874;2022-12-18T02:04:42;100218.59;;;-5.83;98.58
66547;BME280;53400;50.364;14.874;2022-12-18T02:07:13;100208.56;;;-5.77;97.93
66547;BME280;53400;50.364;14.874;2022-12-18T02:09:46;100218.38;;;-5.80;96.37
66547;BME280;53400;50.364;14.874;2022-12-18T02:12:17;100213.47;;;-5.97;97.48
66547;BME280;53400;50.364;14.874;2022-12-18T02:14:50;100210.72;;;-6.09;98.39
66547;BME280;53400;50.364;14.874;2022-12-18T02:17:22;100212.66;;;-6.25;98.61
66547;BME280;53400;50.364;14.874;2022-12-18T02:20:01;100233.59;;;-6.00;99.59
66547;BME280;53400;50.364;14.874;2022-12-18T02:22:36;100230.41;;;-5.78;98.89
66547;BME280;53400;50.364;14.874;2022-12-18T02:25:14;100235.09;;;-5.70;98.71
66547;BME280;53400;50.364;14.874;2022-12-18T02:27:46;100225.75;;;-5.60;98.28
66547;BME280;53400;50.364;14.874;2022-12-18T02:30:15;100230.81;;;-5.71;98.29
66547;BME280;53400;50.364;14.874;2022-12-18T02:32:44;100233.25;;;-5.55;98.50
66547;BME280;53400;50.364;14.874;2022-12-18T02:35:15;100234.28;;;-5.70;98.81
66547;BME280;53400;50.364;14.874;2022-12-18T02:37:42;100229.59;;;-5.65;98.80
66547;BME280;53400;50.364;14.874;2022-12-18T02:40:10;100228.16;;;-5.57;98.94
66547;BME280;53400;50.364;14.874;2022-12-18T02:42:37;100234.72;;;-5.51;98.70
66547;BME280;53400;50.364;14.874;2022-12-18T02:45:05;100238.88;;;-4.85;95.17
66547;BME280;53400;50.364;14.874;2022-12-18T02:47:34;100233.88;;;-4.88;91.58
66547;BME280;53400;50.364;14.874;2022-12-18T02:50:10;100237.31;;;-5.51;94.01
66547;BME280;53400;50.364;14.874;2022-12-18T02:52:48;100239.72;;;-5.61;95.30
66547;BME280;53400;50.364;14.874;2022-12-18T02:55:25;100237.84;;;-5.59;97.11
66547;BME280;53400;50.364;14.874;2022-12-18T02:57:55;100234.81;;;-5.53;97.91
66547;BME280;53400;50.364;14.874;2022-12-18T03:00:29;100227.53;;;-5.47;98.12
66547;BME280;53400;50.364;14.874;2022-12-18T03:03:01;100232.97;;;-5.25;96.81
66547;BME280;53400;50.364;14.874;2022-12-18T03:05:31;100232.75;;;-5.35;96.63
66547;BME280;53400;50.364;14.874;2022-12-18T03:08:03;100235.25;;;-5.46;96.50
66547;BME280;53400;50.364;14.874;2022-12-18T03:10:34;100235.25;;;-5.59;96.77
66547;BME280;53400;50.364;14.874;2022-12-18T03:13:05;100232.50;;;-5.70;96.99
66547;BME280;53400;50.364;14.874;2022-12-18T03:15:37;100237.34;;;-5.91;97.40
66547;BME280;53400;50.364;14.874;2022-12-18T03:18:07;100236.91;;;-6.37;98.83
66547;BME280;53400;50.364;14.874;2022-12-18T03:20:37;100236.03;;;-6.65;100.00
66547;BME280;53400;50.364;14.874;2022-12-18T03:23:09;100234.75;;;-6.31;100.00
66547;BME280;53400;50.364;14.874;2022-12-18T03:25:39;100242.47;;;-6.29;100.00
66547;BME280;53400;50.364;14.874;2022-12-18T03:28:08;100244.97;;;-6.28;100.00
66547;BME280;53400;50.364;14.874;2022-12-18T03:30:39;100246.38;;;-6.36;100.00
66547;BME280;53400;50.364;14.874;2022-12-18T03:33:10;100250.44;;;-6.18;100.00
66547;BME280;53400;50.364;14.874;2022-12-18T03:35:41;100256.03;;;-5.97;99.76
66547;BME280;53400;50.364;14.874;2022-12-18T03:38:07;100269.19;;;-5.86;99.51
66547;BME280;53400;50.364;14.874;2022-12-18T03:40:43;100261.25;;;-5.97;99.03
66547;BME280;53400;50.364;14.874;2022-12-18T03:43:14;100263.81;;;-6.10;100.00
66547;BME280;53400;50.364;14.874;2022-12-18T03:45:49;100263.75;;;-6.08;100.00
66547;BME280;53400;50.364;14.874;2022-12-18T03:48:20;100258.38;;;-6.19;100.00
66547;BME280;53400;50.364;14.874;2022-12-18T03:50:56;100263.03;;;-5.97;100.00
66547;BME280;53400;50.364;14.874;2022-12-18T03:53:29;100262.97;;;-5.70;100.00
66547;BME280;53400;50.364;14.874;2022-12-18T03:55:59;100277.78;;;-5.84;100.00
66547;BME280;53400;50.364;14.874;2022-12-18T03:58:26;100282.91;;;-6.09;99.51
66547;BME280;53400;50.364;14.874;2022-12-18T04:00:58;100274.69;;;-5.63;98.12
66547;BME280;53400;50.364;14.874;2022-12-18T04:03:26;100282.59;;;-5.25;96.23
66547;BME280;53400;50.364;14.874;2022-12-18T04:05:54;100278.94;;;-5.10;93.44
66547;BME280;53400;50.364;14.874;2022-12-18T04:08:21;100281.28;;;-5.58;94.56
66547;BME280;53400;50.364;14.874;2022-12-18T04:10:48;100281.88;;;-5.67;95.32
66547;BME280;53400;50.364;14.874;2022-12-18T04:13:22;100283.47;;;-5.64;95.93
66547;BME280;53400;50.364;14.874;2022-12-18T04:15:48;100280.78;;;-5.37;94.92
66547;BME280;53400;50.364;14.874;2022-12-18T04:18:15;100286.09;;;-5.51;95.38
66547;BME280;53400;50.364;14.874;2022-12-18T04:20:41;100287.16;;;-5.94;97.70
66547;BME280;53400;50.364;14.874;2022-12-18T04:23:07;100290.72;;;-6.36;99.82
66547;BME280;53400;50.364;14.874;2022-12-18T04:25:33;100282.63;;;-6.46;100.00
66547;BME280;53400;50.364;14.874;2022-12-18T04:27:59;100291.78;;;-6.53;100.00
66547;BME280;53400;50.364;14.874;2022-12-18T04:30:25;100290.19;;;-6.70;100.00
66547;BME280;53400;50.364;14.874;2022-12-18T04:32:50;100304.63;;;-6.64;100.00
66547;BME280;53400;50.364;14.874;2022-12-18T04:35:18;100299.88;;;-6.72;100.00
66547;BME280;53400;50.364;14.874;2022-12-18T04:37:44;100303.66;;;-6.49;100.00
66547;BME280;53400;50.364;14.874;2022-12-18T04:40:11;100303.13;;;-6.54;100.00
66547;BME280;53400;50.364;14.874;2022-12-18T04:42:38;100307.22;;;-6.09;100.00
66547;BME280;53400;50.364;14.874;2022-12-18T04:45:05;100302.38;;;-6.01;100.00
66547;BME280;53400;50.364;14.874;2022-12-18T04:47:31;100301.38;;;-5.72;100.00
66547;BME280;53400;50.364;14.874;2022-12-18T04:49:57;100305.88;;;-6.14;99.39
66547;BME280;53400;50.364;14.874;2022-12-18T04:52:25;100309.31;;;-6.14;100.00
66547;BME280;53400;50.364;14.874;2022-12-18T04:54:51;100319.00;;;-6.30;100.00
66547;BME280;53400;50.364;14.874;2022-12-18T04:57:17;100319.34;;;-6.08;100.00
66547;BME280;53400;50.364;14.874;2022-12-18T04:59:46;100315.75;;;-6.19;100.00
66547;BME280;53400;50.364;14.874;2022-12-18T05:02:12;100316.19;;;-6.27;100.00
66547;BME280;53400;50.364;14.874;2022-12-18T05:04:38;100329.66;;;-6.48;100.00
66547;BME280;53400;50.364;14.874;2022-12-18T05:07:04;100334.13;;;-6.35;100.00
66547;BME280;53400;50.364;14.874;2022-12-18T05:09:32;100339.13;;;-6.32;100.00
66547;BME280;53400;50.364;14.874;2022-12-18T05:11:57;100340.97;;;-6.20;100.00
66547;BME280;53400;50.364;14.874;2022-12-18T05:14:23;100344.66;;;-6.51;100.00
66547;BME280;53400;50.364;14.874;2022-12-18T05:16:49;100338.56;;;-6.52;100.00
66547;BME280;53400;50.364;14.874;2022-12-18T05:19:16;100336.16;;;-6.40;100.00
66547;BME280;53400;50.364;14.874;2022-12-18T05:21:41;100342.31;;;-6.56;100.00
66547;BME280;53400;50.364;14.874;2022-12-18T05:24:07;100339.91;;;-6.59;100.00
66547;BME280;53400;50.364;14.874;2022-12-18T05:26:35;100343.34;;;-6.44;100.00
66547;BME280;53400;50.364;14.874;2022-12-18T05:29:01;100343.06;;;-6.54;100.00
66547;BME280;53400;50.364;14.874;2022-12-18T05:31:26;100339.72;;;-6.84;100.00
66547;BME280;53400;50.364;14.874;2022-12-18T05:33:53;100351.59;;;-6.37;100.00
66547;BME280;53400;50.364;14.874;2022-12-18T05:36:19;100354.50;;;-6.71;100.00
66547;BME280;53400;50.364;14.874;2022-12-18T05:38:45;100365.66;;;-6.83;100.00
66547;BME280;53400;50.364;14.874;2022-12-18T05:41:11;100363.25;;;-6.43;100.00
66547;BME280;53400;50.364;14.874;2022-12-18T05:43:39;100369.84;;;-6.52;100.00
66547;BME280;53400;50.364;14.874;2022-12-18T05:46:06;100372.25;;;-6.92;100.00
66547;BME280;53400;50.364;14.874;2022-12-18T05:48:32;100364.44;;;-7.06;100.00
66547;BME280;53400;50.364;14.874;2022-12-18T05:51:03;100371.31;;;-7.05;100.00
66547;BME280;53400;50.364;14.874;2022-12-18T05:53:30;100366.34;;;-7.09;100.00
66547;BME280;53400;50.364;14.874;2022-12-18T05:55:59;100361.81;;;-7.06;100.00
66547;BME280;53400;50.364;14.874;2022-12-18T05:58:26;100376.44;;;-6.89;100.00
66547;BME280;53400;50.364;14.874;2022-12-18T06:00:53;100375.22;;;-6.98;100.00
66547;BME280;53400;50.364;14.874;2022-12-18T06:03:19;100379.63;;;-6.84;100.00
66547;BME280;53400;50.364;14.874;2022-12-18T06:05:45;100374.69;;;-6.74;100.00
66547;BME280;53400;50.364;14.874;2022-12-18T06:08:11;100381.00;;;-6.93;100.00
66547;BME280;53400;50.364;14.874;2022-12-18T06:10:38;100385.31;;;-6.77;100.00
66547;BME280;53400;50.364;14.874;2022-12-18T06:13:04;100382.16;;;-6.54;100.00
66547;BME280;53400;50.364;14.874;2022-12-18T06:15:31;100387.50;;;-6.85;100.00
66547;BME280;53400;50.364;14.874;2022-12-18T06:18:00;100384.34;;;-6.76;100.00
66547;BME280;53400;50.364;14.874;2022-12-18T06:20:25;100391.94;;;-7.02;100.00
66547;BME280;53400;50.364;14.874;2022-12-18T06:22:51;100399.28;;;-6.78;100.00
66547;BME280;53400;50.364;14.874;2022-12-18T06:25:17;100402.81;;;-6.22;100.00
66547;BME280;53400;50.364;14.874;2022-12-18T06:27:44;100407.38;;;-6.26;100.00
66547;BME280;53400;50.364;14.874;2022-12-18T06:30:10;100403.47;;;-6.61;100.00
66547;BME280;53400;50.364;14.874;2022-12-18T06:32:36;100402.72;;;-6.49;100.00
66547;BME280;53400;50.364;14.874;2022-12-18T06:35:05;100413.63;;;-6.42;100.00
66547;BME280;53400;50.364;14.874;2022-12-18T06:37:31;100418.94;;;-7.03;100.00
66547;BME280;53400;50.364;14.874;2022-12-18T06:39:57;100419.31;;;-6.95;100.00
66547;BME280;53400;50.364;14.874;2022-12-18T06:42:24;100430.47;;;-6.62;100.00
66547;BME280;53400;50.364;14.874;2022-12-18T06:44:50;100422.84;;;-6.51;100.00
66547;BME280;53400;50.364;14.874;2022-12-18T06:47:17;100431.13;;;-6.59;100.00
66547;BME280;53400;50.364;14.874;2022-12-18T06:49:44;100437.78;;;-6.83;100.00
66547;BME280;53400;50.364;14.874;2022-12-18T06:52:13;100431.28;;;-6.62;100.00
66547;BME280;53400;50.364;14.874;2022-12-18T06:54:41;100436.81;;;-6.24;100.00
66547;BME280;53400;50.364;14.874;2022-12-18T06:57:08;100443.91;;;-6.26;100.00
66547;BME280;53400;50.364;14.874;2022-12-18T06:59:35;100443.78;;;-6.10;100.00
66547;BME280;53400;50.364;14.874;2022-12-18T07:02:01;100444.13;;;-5.87;100.00
66547;BME280;53400;50.364;14.874;2022-12-18T07:04:29;100446.13;;;-5.10;100.00
66547;BME280;53400;50.364;14.874;2022-12-18T07:06:56;100450.72;;;-5.40;100.00
66547;BME280;53400;50.364;14.874;2022-12-18T07:09:24;100457.94;;;-6.00;99.49
66547;BME280;53400;50.364;14.874;2022-12-18T07:11:51;100460.00;;;-5.63;100.00
66547;BME280;53400;50.364;14.874;2022-12-18T07:14:18;100462.84;;;-5.81;100.00
66547;BME280;53400;50.364;14.874;2022-12-18T07:16:45;100468.19;;;-5.96;100.00
66547;BME280;53400;50.364;14.874;2022-12-18T07:19:11;100468.91;;;-5.80;99.95
66547;BME280;53400;50.364;14.874;2022-12-18T07:21:38;100462.31;;;-6.00;98.62
66547;BME280;53400;50.364;14.874;2022-12-18T07:24:05;100471.16;;;-6.03;99.52
66547;BME280;53400;50.364;14.874;2022-12-18T07:26:34;100483.00;;;-5.97;99.51
66547;BME280;53400;50.364;14.874;2022-12-18T07:29:01;100484.97;;;-6.29;100.00
66547;BME280;53400;50.364;14.874;2022-12-18T07:31:28;100484.03;;;-6.28;100.00
66547;BME280;53400;50.364;14.874;2022-12-18T07:33:54;100472.03;;;-6.02;100.00
66547;BME280;53400;50.364;14.874;2022-12-18T07:36:23;100473.00;;;-5.90;100.00
66547;BME280;53400;50.364;14.874;2022-12-18T07:38:50;100491.84;;;-6.00;100.00
66547;BME280;53400;50.364;14.874;2022-12-18T07:41:18;100490.66;;;-6.08;100.00
66547;BME280;53400;50.364;14.874;2022-12-18T07:43:46;100507.09;;;-5.65;100.00
66547;BME280;53400;50.364;14.874;2022-12-18T07:46:14;100509.91;;;-5.68;100.00
66547;BME280;53400;50.364;14.874;2022-12-18T07:48:42;100511.25;;;-6.04;100.00
66547;BME280;53400;50.364;14.874;2022-12-18T07:51:10;100509.09;;;-5.97;100.00
66547;BME280;53400;50.364;14.874;2022-12-18T07:53:39;100513.03;;;-5.48;99.76
66547;BME280;53400;50.364;14.874;2022-12-18T07:56:07;100512.31;;;-5.65;99.71
66547;BME280;53400;50.364;14.874;2022-12-18T07:58:35;100519.97;;;-5.76;100.00
66547;BME280;53400;50.364;14.874;2022-12-18T08:01:05;100525.88;;;-6.01;100.00
66547;BME280;53400;50.364;14.874;2022-12-18T08:03:32;100517.34;;;-5.76;100.00
66547;BME280;53400;50.364;14.874;2022-12-18T08:06:00;100520.63;;;-5.87;100.00
66547;BME280;53400;50.364;14.874;2022-12-18T08:08:27;100517.91;;;-5.71;100.00
66547;BME280;53400;50.364;14.874;2022-12-18T08:10:57;100521.16;;;-5.53;99.77
66547;BME280;53400;50.364;14.874;2022-12-18T08:13:25;100521.38;;;-5.70;99.64
66547;BME280;53400;50.364;14.874;2022-12-18T08:15:58;100514.41;;;-5.84;100.00
66547;BME280;53400;50.364;14.874;2022-12-18T08:18:27;100515.25;;;-5.98;100.00
66547;BME280;53400;50.364;14.874;2022-12-18T08:20:55;100521.28;;;-6.12;100.00
66547;BME280;53400;50.364;14.874;2022-12-18T08:23:22;100518.09;;;-5.60;100.00
66547;BME280;53400;50.364;14.874;2022-12-18T08:25:49;100521.94;;;-5.65;99.46
66547;BME280;53400;50.364;14.874;2022-12-18T08:48:21;100520.47;;;-5.42;100.00
66547;BME280;53400;50.364;14.874;2022-12-18T08:50:54;100521.84;;;-5.78;100.00
66547;BME280;53400;50.364;14.874;2022-12-18T08:53:24;100524.03;;;-5.43;100.00
66547;BME280;53400;50.364;14.874;2022-12-18T08:55:51;100531.69;;;-5.55;100.00
66547;BME280;53400;50.364;14.874;2022-12-18T08:58:18;100534.56;;;-5.45;100.00
66547;BME280;53400;50.364;14.874;2022-12-18T09:00:45;100530.88;;;-5.14;99.55
66547;BME280;53400;50.364;14.874;2022-12-18T09:03:14;100522.09;;;-5.54;99.47
66547;BME280;53400;50.364;14.874;2022-12-18T09:05:45;100520.59;;;-5.58;100.00
66547;BME280;53400;50.364;14.874;2022-12-18T09:08:12;100519.00;;;-5.46;100.00
66547;BME280;53400;50.364;14.874;2022-12-18T09:10:43;100528.06;;;-5.52;100.00
66547;BME280;53400;50.364;14.874;2022-12-18T09:13:10;100521.47;;;-5.86;100.00
66547;BME280;53400;50.364;14.874;2022-12-18T09:15:41;100524.25;;;-5.61;100.00
66547;BME280;53400;50.364;14.874;2022-12-18T09:18:08;100519.38;;;-5.38;100.00
66547;BME280;53400;50.364;14.874;2022-12-18T09:20:35;100519.94;;;-5.47;99.48
66547;BME280;53400;50.364;14.874;2022-12-18T09:23:07;100517.72;;;-5.68;100.00
66547;BME280;53400;50.364;14.874;2022-12-18T09:25:37;100513.69;;;-5.45;99.57
66547;BME280;53400;50.364;14.874;2022-12-18T09:28:06;100519.13;;;-5.21;100.00
66547;BME280;53400;50.364;14.874;2022-12-18T09:30:37;100522.34;;;-5.03;97.84
66547;BME280;53400;50.364;14.874;2022-12-18T09:33:05;100522.25;;;-5.01;96.32
66547;BME280;53400;50.364;14.874;2022-12-18T09:35:32;100538.84;;;-5.02;96.05
66547;BME280;53400;50.364;14.874;2022-12-18T09:38:00;100540.78;;;-5.33;95.56
66547;BME280;53400;50.364;14.874;2022-12-18T09:40:34;100546.31;;;-5.38;98.15
66547;BME280;53400;50.364;14.874;2022-12-18T09:43:04;100544.34;;;-5.20;97.45
66547;BME280;53400;50.364;14.874;2022-12-18T09:45:37;100543.44;;;-5.47;97.51
66547;BME280;53400;50.364;14.874;2022-12-18T09:48:08;100548.56;;;-5.60;98.31
66547;BME280;53400;50.364;14.874;2022-12-18T09:50:39;100546.97;;;-5.34;98.41
66547;BME280;53400;50.364;14.874;2022-12-18T09:53:12;100539.00;;;-5.60;98.84
66547;BME280;53400;50.364;14.874;2022-12-18T09:55:45;100548.22;;;-5.97;99.70
66547;BME280;53400;50.364;14.874;2022-12-18T09:58:15;100537.31;;;-6.04;100.00
66547;BME280;53400;50.364;14.874;2022-12-18T10:00:44;100543.31;;;-6.02;100.00
66547;BME280;53400;50.364;14.874;2022-12-18T10:03:12;100547.56;;;-6.01;100.00
66547;BME280;53400;50.364;14.874;2022-12-18T10:05:43;100558.47;;;-5.80;100.00
66547;BME280;53400;50.364;14.874;2022-12-18T10:08:20;100569.09;;;-5.83;98.90
66547;BME280;53400;50.364;14.874;2022-12-18T10:10:53;100559.94;;;-5.61;99.39
66547;BME280;53400;50.364;14.874;2022-12-18T10:13:23;100563.78;;;-6.10;100.00
66547;BME280;53400;50.364;14.874;2022-12-18T10:16:14;100574.50;;;-6.14;100.00
66547;BME280;53400;50.364;14.874;2022-12-18T10:21:50;100576.91;;;-5.40;97.38
66547;BME280;53400;50.364;14.874;2022-12-18T10:24:26;100576.81;;;-5.67;96.66
66547;BME280;53400;50.364;14.874;2022-12-18T10:27:11;100577.34;;;-5.19;96.46
66547;BME280;53400;50.364;14.874;2022-12-18T10:29:38;100567.66;;;-5.31;95.45
66547;BME280;53400;50.364;14.874;2022-12-18T10:32:10;100566.88;;;-5.04;93.84
66547;BME280;53400;50.364;14.874;2022-12-18T10:34:52;100554.41;;;-5.14;94.32
66547;BME280;53400;50.364;14.874;2022-12-18T10:37:23;100546.41;;;-5.39;94.72
66547;BME280;53400;50.364;14.874;2022-12-18T10:40:07;100546.28;;;-4.96;95.34
66547;BME280;53400;50.364;14.874;2022-12-18T10:42:42;100541.56;;;-4.77;93.17
66547;BME280;53400;50.364;14.874;2022-12-18T10:45:12;100544.19;;;-5.04;92.66
66547;BME280;53400;50.364;14.874;2022-12-18T10:47:46;100539.19;;;-5.77;95.08
66547;BME280;53400;50.364;14.874;2022-12-18T10:50:28;100547.06;;;-5.09;95.92
66547;BME280;53400;50.364;14.874;2022-12-18T10:52:57;100528.31;;;-5.01;94.48
66547;BME280;53400;50.364;14.874;2022-12-18T10:55:30;100525.78;;;-5.02;94.35
66547;BME280;53400;50.364;14.874;2022-12-18T10:58:15;100527.69;;;-5.60;95.47
66547;BME280;53400;50.364;14.874;2022-12-18T11:00:43;100519.25;;;-5.22;95.79
66547;BME280;53400;50.364;14.874;2022-12-18T11:03:30;100517.41;;;-5.49;96.33
66547;BME280;53400;50.364;14.874;2022-12-18T11:06:06;100526.94;;;-4.79;95.76
66547;BME280;53400;50.364;14.874;2022-12-18T11:08:33;100518.06;;;-4.64;92.25
66547;BME280;53400;50.364;14.874;2022-12-18T11:11:00;100520.75;;;-5.05;91.77
66547;BME280;53400;50.364;14.874;2022-12-18T11:13:29;100510.22;;;-5.31;94.85
66547;BME280;53400;50.364;14.874;2022-12-18T11:15:57;100510.72;;;-5.53;96.42
66547;BME280;53400;50.364;14.874;2022-12-18T11:18:26;100500.81;;;-5.48;95.89
66547;BME280;53400;50.364;14.874;2022-12-18T11:20:54;100489.69;;;-5.37;96.73
66547;BME280;53400;50.364;14.874;2022-12-18T11:23:21;100488.06;;;-5.67;96.41
66547;BME280;53400;50.364;14.874;2022-12-18T11:25:54;100481.63;;;-5.61;97.21
66547;BME280;53400;50.364;14.874;2022-12-18T11:28:38;100485.28;;;-5.64;97.23
66547;BME280;53400;50.364;14.874;2022-12-18T11:31:21;100481.91;;;-5.93;98.56
66547;BME280;53400;50.364;14.874;2022-12-18T11:34:00;100487.56;;;-6.01;99.57
66547;BME280;53400;50.364;14.874;2022-12-18T11:36:31;100487.00;;;-6.34;100.00
66547;BME280;53400;50.364;14.874;2022-12-18T11:39:03;100485.81;;;-6.00;100.00
66547;BME280;53400;50.364;14.874;2022-12-18T11:41:34;100486.31;;;-6.52;100.00
66547;BME280;53400;50.364;14.874;2022-12-18T11:44:26;100481.97;;;-6.37;100.00
66547;BME280;53400;50.364;14.874;2022-12-18T11:46:59;100489.28;;;-6.58;100.00
66547;BME280;53400;50.364;14.874;2022-12-18T11:49:29;100499.81;;;-6.60;100.00
66547;BME280;53400;50.364;14.874;2022-12-18T11:52:01;100499.81;;;-6.60;100.00
66547;BME280;53400;50.364;14.874;2022-12-18T11:54:31;100485.47;;;-6.53;100.00
66547;BME280;53400;50.364;14.874;2022-12-18T11:57:03;100493.41;;;-6.54;100.00
66547;BME280;53400;50.364;14.874;2022-12-18T11:59:41;100485.31;;;-6.50;100.00
66547;BME280;53400;50.364;14.874;2022-12-18T12:02:21;100497.91;;;-6.72;100.00
66547;BME280;53400;50.364;14.874;2022-12-18T12:05:02;100502.38;;;-6.74;100.00
66547;BME280;53400;50.364;14.874;2022-12-18T12:07:39;100495.75;;;-6.80;100.00
66547;BME280;53400;50.364;14.874;2022-12-18T12:10:22;100495.75;;;-6.80;100.00
66547;BME280;53400;50.364;14.874;2022-12-18T12:13:03;100493.66;;;-6.89;100.00
66547;BME280;53400;50.364;14.874;2022-12-18T12:15:42;100503.47;;;-6.78;100.00
66547;BME280;53400;50.364;14.874;2022-12-18T12:18:19;100499.13;;;-6.63;100.00
66547;BME280;53400;50.364;14.874;2022-12-18T12:20:56;100499.47;;;-6.70;100.00
66547;BME280;53400;50.364;14.874;2022-12-18T12:23:35;100495.84;;;-6.81;100.00
66547;BME280;53400;50.364;14.874;2022-12-18T12:26:06;100489.22;;;-6.87;100.00
66547;BME280;53400;50.364;14.874;2022-12-18T12:28:48;100493.31;;;-6.83;100.00
66547;BME280;53400;50.364;14.874;2022-12-18T12:31:19;100494.16;;;-6.82;100.00
66547;BME280;53400;50.364;14.874;2022-12-18T12:33:54;100497.16;;;-6.74;100.00
66547;BME280;53400;50.364;14.874;2022-12-18T12:36:30;100507.53;;;-6.88;100.00
66547;BME280;53400;50.364;14.874;2022-12-18T12:39:01;100499.88;;;-6.61;100.00
66547;BME280;53400;50.364;14.874;2022-12-18T12:41:33;100505.69;;;-6.56;100.00
66547;BME280;53400;50.364;14.874;2022-12-18T12:44:22;100512.66;;;-6.57;100.00
66547;BME280;53400;50.364;14.874;2022-12-18T12:46:53;100499.38;;;-6.38;100.00
66547;BME280;53400;50.364;14.874;2022-12-18T12:49:26;100508.03;;;-6.37;100.00
66547;BME280;53400;50.364;14.874;2022-12-18T12:51:58;100509.09;;;-6.11;100.00
66547;BME280;53400;50.364;14.874;2022-12-18T12:54:27;100513.75;;;-6.16;100.00
66547;BME280;53400;50.364;14.874;2022-12-18T12:56:59;100514.47;;;-6.29;100.00
66547;BME280;53400;50.364;14.874;2022-12-18T12:59:31;100514.91;;;-6.36;100.00
66547;BME280;53400;50.364;14.874;2022-12-18T13:02:09;100514.47;;;-6.29;100.00
66547;BME280;53400;50.364;14.874;2022-12-18T13:04:45;100517.56;;;-6.22;100.00
66547;BME280;53400;50.364;14.874;2022-12-18T13:07:20;100517.84;;;-6.12;100.00
66547;BME280;53400;50.364;14.874;2022-12-18T13:10:13;100520.28;;;-5.95;100.00
66547;BME280;53400;50.364;14.874;2022-12-18T13:12:51;100518.97;;;-6.16;100.00